sensor_id;sensor_type;location;lat;lon;timestamp;P1;durP1;ratioP1;P2;durP2;ratioP2
21727;SDS011;11026;50.560;17.852;2023-07-29T00:00:57;6.60;;;4.60;;
21727;SDS011;11026;50.560;17.852;2023-07-29T00:03:24;6.82;;;4.60;;
21727;SDS011;11026;50.560;17.852;2023-07-29T00:05:52;10.23;;;5.00;;
21727;SDS011;11026;50.560;17.852;2023-07-29T00:08:20;5.60;;;4.95;;
21727;SDS011;11026;50.560;17.852;2023-07-29T00:10:47;4.80;;;4.40;;
21727;SDS011;11026;50.560;17.852;2023-07-29T00:13:15;5.57;;;5.03;;
21727;SDS011;11026;50.560;17.852;2023-07-29T00:15:42;6.35;;;4.90;;
21727;SDS011;11026;50.560;17.852;2023-07-29T00:18:09;12.20;;;5.50;;
21727;SDS011;11026;50.560;17.852;2023-07-29T00:20:37;9.15;;;5.45;;
21727;SDS011;11026;50.560;17.852;2023-07-29T00:23:04;5.72;;;4.70;;
21727;SDS011;11026;50.560;17.852;2023-07-29T00:25:32;11.63;;;5.40;;
21727;SDS011;11026;50.560;17.852;2023-07-29T00:27:59;6.82;;;5.70;;
21727;SDS011;11026;50.560;17.852;2023-07-29T00:30:28;9.40;;;5.95;;
21727;SDS011;11026;50.560;17.852;2023-07-29T00:32:55;9.30;;;5.60;;
21727;SDS011;11026;50.560;17.852;2023-07-29T00:35:23;8.80;;;5.50;;
21727;SDS011;11026;50.560;17.852;2023-07-29T00:37:50;10.38;;;5.40;;
21727;SDS011;11026;50.560;17.852;2023-07-29T00:40:21;7.35;;;5.20;;
21727;SDS011;11026;50.560;17.852;2023-07-29T00:42:50;9.45;;;5.03;;
21727;SDS011;11026;50.560;17.852;2023-07-29T00:45:18;5.60;;;5.10;;
21727;SDS011;11026;50.560;17.852;2023-07-29T00:47:46;5.50;;;4.90;;
21727;SDS011;11026;50.560;17.852;2023-07-29T00:50:15;5.10;;;4.60;;
21727;SDS011;11026;50.560;17.852;2023-07-29T00:52:42;5.78;;;5.20;;
21727;SDS011;11026;50.560;17.852;2023-07-29T00:55:11;6.50;;;4.53;;
21727;SDS011;11026;50.560;17.852;2023-07-29T00:57:39;8.70;;;5.40;;
21727;SDS011;11026;50.560;17.852;2023-07-29T01:00:09;5.93;;;5.43;;
21727;SDS011;11026;50.560;17.852;2023-07-29T01:02:37;5.80;;;5.30;;
21727;SDS011;11026;50.560;17.852;2023-07-29T01:05:05;7.93;;;5.72;;
21727;SDS011;11026;50.560;17.852;2023-07-29T01:07:39;5.90;;;5.30;;
21727;SDS011;11026;50.560;17.852;2023-07-29T01:13:23;6.47;;;5.68;;
21727;SDS011;11026;50.560;17.852;2023-07-29T01:16:26;9.32;;;5.40;;
21727;SDS011;11026;50.560;17.852;2023-07-29T01:18:59;7.28;;;5.30;;
21727;SDS011;11026;50.560;17.852;2023-07-29T01:21:35;8.65;;;5.35;;
21727;SDS011;11026;50.560;17.852;2023-07-29T01:24:04;6.88;;;5.63;;
21727;SDS011;11026;50.560;17.852;2023-07-29T01:26:31;6.38;;;5.25;;
21727;SDS011;11026;50.560;17.852;2023-07-29T01:28:59;6.63;;;6.07;;
21727;SDS011;11026;50.560;17.852;2023-07-29T01:31:38;6.25;;;5.50;;
21727;SDS011;11026;50.560;17.852;2023-07-29T01:34:29;6.70;;;5.65;;
21727;SDS011;11026;50.560;17.852;2023-07-29T01:37:02;9.02;;;5.32;;
21727;SDS011;11026;50.560;17.852;2023-07-29T01:39:35;7.80;;;5.82;;
21727;SDS011;11026;50.560;17.852;2023-07-29T01:42:04;9.38;;;5.82;;
21727;SDS011;11026;50.560;17.852;2023-07-29T01:44:33;10.43;;;7.15;;
21727;SDS011;11026;50.560;17.852;2023-07-29T01:47:01;9.80;;;7.07;;
21727;SDS011;11026;50.560;17.852;2023-07-29T01:49:28;10.85;;;7.25;;
21727;SDS011;11026;50.560;17.852;2023-07-29T01:51:56;8.20;;;7.43;;
21727;SDS011;11026;50.560;17.852;2023-07-29T01:54:24;7.72;;;6.93;;
21727;SDS011;11026;50.560;17.852;2023-07-29T01:56:52;9.73;;;7.40;;
21727;SDS011;11026;50.560;17.852;2023-07-29T01:59:20;8.27;;;6.90;;
21727;SDS011;11026;50.560;17.852;2023-07-29T02:01:48;7.60;;;6.90;;
21727;SDS011;11026;50.560;17.852;2023-07-29T02:04:15;7.65;;;6.63;;
21727;SDS011;11026;50.560;17.852;2023-07-29T02:06:43;6.47;;;5.88;;
21727;SDS011;11026;50.560;17.852;2023-07-29T02:09:10;6.93;;;6.20;;
21727;SDS011;11026;50.560;17.852;2023-07-29T02:11:38;6.93;;;5.82;;
21727;SDS011;11026;50.560;17.852;2023-07-29T02:14:06;7.45;;;6.72;;
21727;SDS011;11026;50.560;17.852;2023-07-29T02:16:34;6.05;;;5.30;;
21727;SDS011;11026;50.560;17.852;2023-07-29T02:19:02;6.47;;;5.65;;
21727;SDS011;11026;50.560;17.852;2023-07-29T02:21:31;8.20;;;5.82;;
21727;SDS011;11026;50.560;17.852;2023-07-29T02:23:58;8.10;;;6.20;;
21727;SDS011;11026;50.560;17.852;2023-07-29T02:26:26;6.57;;;5.55;;
21727;SDS011;11026;50.560;17.852;2023-07-29T02:28:53;5.97;;;5.47;;
21727;SDS011;11026;50.560;17.852;2023-07-29T02:31:21;6.07;;;5.45;;
21727;SDS011;11026;50.560;17.852;2023-07-29T02:33:50;6.03;;;5.45;;
21727;SDS011;11026;50.560;17.852;2023-07-29T02:36:18;6.63;;;5.93;;
21727;SDS011;11026;50.560;17.852;2023-07-29T02:38:46;6.15;;;5.55;;
21727;SDS011;11026;50.560;17.852;2023-07-29T02:41:13;5.00;;;4.60;;
21727;SDS011;11026;50.560;17.852;2023-07-29T02:43:47;8.05;;;5.18;;
21727;SDS011;11026;50.560;17.852;2023-07-29T02:46:16;5.53;;;4.80;;
21727;SDS011;11026;50.560;17.852;2023-07-29T02:48:44;5.07;;;4.55;;
21727;SDS011;11026;50.560;17.852;2023-07-29T02:51:11;7.15;;;5.13;;
21727;SDS011;11026;50.560;17.852;2023-07-29T02:53:39;6.38;;;5.30;;
21727;SDS011;11026;50.560;17.852;2023-07-29T02:56:06;5.95;;;5.35;;
21727;SDS011;11026;50.560;17.852;2023-07-29T02:58:36;6.15;;;5.63;;
21727;SDS011;11026;50.560;17.852;2023-07-29T03:01:05;6.65;;;5.25;;
21727;SDS011;11026;50.560;17.852;2023-07-29T03:03:33;5.20;;;4.75;;
21727;SDS011;11026;50.560;17.852;2023-07-29T03:06:05;6.60;;;5.38;;
21727;SDS011;11026;50.560;17.852;2023-07-29T03:08:34;6.07;;;5.45;;
21727;SDS011;11026;50.560;17.852;2023-07-29T03:11:06;7.05;;;5.57;;
21727;SDS011;11026;50.560;17.852;2023-07-29T03:13:36;7.25;;;5.60;;
21727;SDS011;11026;50.560;17.852;2023-07-29T03:16:07;6.70;;;5.93;;
21727;SDS011;11026;50.560;17.852;2023-07-29T03:18:41;6.93;;;6.28;;
21727;SDS011;11026;50.560;17.852;2023-07-29T03:21:12;6.55;;;5.88;;
21727;SDS011;11026;50.560;17.852;2023-07-29T03:23:40;7.93;;;6.78;;
21727;SDS011;11026;50.560;17.852;2023-07-29T03:26:08;9.20;;;6.45;;
21727;SDS011;11026;50.560;17.852;2023-07-29T03:28:40;9.77;;;6.25;;
21727;SDS011;11026;50.560;17.852;2023-07-29T03:31:10;6.85;;;6.20;;
21727;SDS011;11026;50.560;17.852;2023-07-29T03:33:38;10.10;;;6.85;;
21727;SDS011;11026;50.560;17.852;2023-07-29T03:36:06;10.00;;;9.10;;
21727;SDS011;11026;50.560;17.852;2023-07-29T03:38:33;7.95;;;7.30;;
21727;SDS011;11026;50.560;17.852;2023-07-29T03:41:02;7.45;;;6.68;;
21727;SDS011;11026;50.560;17.852;2023-07-29T03:43:30;7.75;;;6.75;;
21727;SDS011;11026;50.560;17.852;2023-07-29T03:45:58;8.10;;;6.13;;
21727;SDS011;11026;50.560;17.852;2023-07-29T03:48:27;6.07;;;5.47;;
21727;SDS011;11026;50.560;17.852;2023-07-29T03:50:56;5.20;;;4.60;;
21727;SDS011;11026;50.560;17.852;2023-07-29T03:53:23;4.88;;;4.30;;
21727;SDS011;11026;50.560;17.852;2023-07-29T03:55:52;6.18;;;4.50;;
21727;SDS011;11026;50.560;17.852;2023-07-29T03:58:19;7.13;;;4.60;;
21727;SDS011;11026;50.560;17.852;2023-07-29T04:00:49;7.32;;;4.53;;
21727;SDS011;11026;50.560;17.852;2023-07-29T04:03:16;4.72;;;4.32;;
21727;SDS011;11026;50.560;17.852;2023-07-29T04:05:43;4.70;;;4.00;;
21727;SDS011;11026;50.560;17.852;2023-07-29T04:08:12;5.00;;;4.50;;
21727;SDS011;11026;50.560;17.852;2023-07-29T04:10:41;5.22;;;4.45;;
21727;SDS011;11026;50.560;17.852;2023-07-29T04:13:09;5.63;;;4.50;;
21727;SDS011;11026;50.560;17.852;2023-07-29T04:15:37;5.45;;;5.03;;
21727;SDS011;11026;50.560;17.852;2023-07-29T04:18:07;5.32;;;4.80;;
21727;SDS011;11026;50.560;17.852;2023-07-29T04:20:34;6.18;;;4.70;;
21727;SDS011;11026;50.560;17.852;2023-07-29T04:23:02;7.30;;;4.85;;
21727;SDS011;11026;50.560;17.852;2023-07-29T04:25:29;6.25;;;5.20;;
21727;SDS011;11026;50.560;17.852;2023-07-29T04:27:57;7.35;;;4.90;;
21727;SDS011;11026;50.560;17.852;2023-07-29T04:30:32;5.97;;;5.50;;
21727;SDS011;11026;50.560;17.852;2023-07-29T04:33:01;5.88;;;5.38;;
21727;SDS011;11026;50.560;17.852;2023-07-29T04:35:29;6.90;;;6.20;;
21727;SDS011;11026;50.560;17.852;2023-07-29T04:37:56;7.38;;;6.55;;
21727;SDS011;11026;50.560;17.852;2023-07-29T04:40:32;6.80;;;6.15;;
21727;SDS011;11026;50.560;17.852;2023-07-29T04:43:01;7.50;;;6.60;;
21727;SDS011;11026;50.560;17.852;2023-07-29T04:45:28;7.53;;;6.60;;
21727;SDS011;11026;50.560;17.852;2023-07-29T04:47:57;6.72;;;6.10;;
21727;SDS011;11026;50.560;17.852;2023-07-29T04:50:25;6.95;;;6.00;;
21727;SDS011;11026;50.560;17.852;2023-07-29T04:52:53;7.10;;;5.97;;
21727;SDS011;11026;50.560;17.852;2023-07-29T04:55:20;7.93;;;5.65;;
21727;SDS011;11026;50.560;17.852;2023-07-29T04:57:48;7.13;;;6.30;;
21727;SDS011;11026;50.560;17.852;2023-07-29T05:00:15;7.18;;;5.82;;
21727;SDS011;11026;50.560;17.852;2023-07-29T05:02:43;6.03;;;5.53;;
21727;SDS011;11026;50.560;17.852;2023-07-29T05:05:14;7.78;;;5.43;;
21727;SDS011;11026;50.560;17.852;2023-07-29T05:07:43;6.80;;;6.10;;
21727;SDS011;11026;50.560;17.852;2023-07-29T05:10:10;5.78;;;5.20;;
21727;SDS011;11026;50.560;17.852;2023-07-29T05:12:38;5.85;;;5.35;;
21727;SDS011;11026;50.560;17.852;2023-07-29T05:15:06;6.00;;;5.40;;
21727;SDS011;11026;50.560;17.852;2023-07-29T05:17:34;5.40;;;4.90;;
21727;SDS011;11026;50.560;17.852;2023-07-29T05:20:02;5.85;;;4.88;;
21727;SDS011;11026;50.560;17.852;2023-07-29T05:22:29;5.65;;;5.10;;
21727;SDS011;11026;50.560;17.852;2023-07-29T05:24:57;5.55;;;4.75;;
21727;SDS011;11026;50.560;17.852;2023-07-29T05:27:25;6.00;;;4.50;;
21727;SDS011;11026;50.560;17.852;2023-07-29T05:29:53;6.95;;;4.25;;
21727;SDS011;11026;50.560;17.852;2023-07-29T05:32:20;4.75;;;4.20;;
21727;SDS011;11026;50.560;17.852;2023-07-29T05:34:48;5.50;;;4.38;;
21727;SDS011;11026;50.560;17.852;2023-07-29T05:37:15;5.05;;;4.30;;
21727;SDS011;11026;50.560;17.852;2023-07-29T05:39:44;4.88;;;4.03;;
21727;SDS011;11026;50.560;17.852;2023-07-29T05:42:11;4.18;;;3.88;;
21727;SDS011;11026;50.560;17.852;2023-07-29T05:44:38;4.32;;;3.92;;
21727;SDS011;11026;50.560;17.852;2023-07-29T05:47:06;4.57;;;3.83;;
21727;SDS011;11026;50.560;17.852;2023-07-29T05:49:34;5.28;;;3.70;;
21727;SDS011;11026;50.560;17.852;2023-07-29T05:52:02;4.78;;;3.63;;
21727;SDS011;11026;50.560;17.852;2023-07-29T05:54:29;4.20;;;3.90;;
21727;SDS011;11026;50.560;17.852;2023-07-29T05:56:57;5.80;;;3.53;;
21727;SDS011;11026;50.560;17.852;2023-07-29T05:59:24;4.93;;;3.38;;
21727;SDS011;11026;50.560;17.852;2023-07-29T06:01:52;4.55;;;3.58;;
21727;SDS011;11026;50.560;17.852;2023-07-29T06:04:19;4.28;;;3.00;;
21727;SDS011;11026;50.560;17.852;2023-07-29T06:06:47;5.43;;;2.97;;
21727;SDS011;11026;50.560;17.852;2023-07-29T06:09:14;4.68;;;3.03;;
21727;SDS011;11026;50.560;17.852;2023-07-29T06:11:43;4.05;;;2.80;;
21727;SDS011;11026;50.560;17.852;2023-07-29T06:14:10;3.47;;;2.33;;
21727;SDS011;11026;50.560;17.852;2023-07-29T06:19:21;3.55;;;2.30;;
21727;SDS011;11026;50.560;17.852;2023-07-29T06:21:49;2.53;;;2.33;;
21727;SDS011;11026;50.560;17.852;2023-07-29T06:24:16;2.10;;;1.90;;
21727;SDS011;11026;50.560;17.852;2023-07-29T06:26:44;3.60;;;2.20;;
21727;SDS011;11026;50.560;17.852;2023-07-29T06:29:11;3.67;;;2.30;;
21727;SDS011;11026;50.560;17.852;2023-07-29T06:31:40;2.28;;;2.08;;
21727;SDS011;11026;50.560;17.852;2023-07-29T06:34:08;2.30;;;2.10;;
21727;SDS011;11026;50.560;17.852;2023-07-29T06:36:36;2.00;;;1.90;;
21727;SDS011;11026;50.560;17.852;2023-07-29T06:39:05;2.70;;;1.67;;
21727;SDS011;11026;50.560;17.852;2023-07-29T06:41:34;4.03;;;1.92;;
21727;SDS011;11026;50.560;17.852;2023-07-29T06:44:03;3.25;;;1.98;;
21727;SDS011;11026;50.560;17.852;2023-07-29T06:46:31;3.20;;;1.75;;
21727;SDS011;11026;50.560;17.852;2023-07-29T06:48:59;2.67;;;2.30;;
21727;SDS011;11026;50.560;17.852;2023-07-29T06:51:27;4.03;;;2.00;;
21727;SDS011;11026;50.560;17.852;2023-07-29T06:54:05;2.10;;;1.90;;
21727;SDS011;11026;50.560;17.852;2023-07-29T06:56:33;2.78;;;1.65;;
21727;SDS011;11026;50.560;17.852;2023-07-29T06:59:01;4.05;;;1.40;;
21727;SDS011;11026;50.560;17.852;2023-07-29T07:01:31;2.30;;;1.50;;
21727;SDS011;11026;50.560;17.852;2023-07-29T07:03:58;2.30;;;1.67;;
21727;SDS011;11026;50.560;17.852;2023-07-29T07:06:26;1.83;;;1.40;;
21727;SDS011;11026;50.560;17.852;2023-07-29T07:08:55;1.80;;;1.50;;
21727;SDS011;11026;50.560;17.852;2023-07-29T07:11:23;3.47;;;1.70;;
21727;SDS011;11026;50.560;17.852;2023-07-29T07:13:51;1.45;;;1.35;;
21727;SDS011;11026;50.560;17.852;2023-07-29T07:16:19;3.53;;;1.48;;
21727;SDS011;11026;50.560;17.852;2023-07-29T07:18:46;2.00;;;1.75;;
21727;SDS011;11026;50.560;17.852;2023-07-29T07:21:20;2.60;;;1.38;;
21727;SDS011;11026;50.560;17.852;2023-07-29T07:26:16;1.20;;;1.10;;
21727;SDS011;11026;50.560;17.852;2023-07-29T07:28:51;4.45;;;1.50;;
21727;SDS011;11026;50.560;17.852;2023-07-29T07:31:18;2.55;;;1.30;;
21727;SDS011;11026;50.560;17.852;2023-07-29T07:36:19;1.45;;;1.35;;
21727;SDS011;11026;50.560;17.852;2023-07-29T07:38:52;1.80;;;1.52;;
21727;SDS011;11026;50.560;17.852;2023-07-29T07:41:28;2.35;;;1.20;;
21727;SDS011;11026;50.560;17.852;2023-07-29T07:43:56;1.73;;;1.13;;
21727;SDS011;11026;50.560;17.852;2023-07-29T07:46:23;2.65;;;1.40;;
21727;SDS011;11026;50.560;17.852;2023-07-29T07:48:51;1.40;;;1.30;;
21727;SDS011;11026;50.560;17.852;2023-07-29T07:51:20;1.20;;;1.10;;
21727;SDS011;11026;50.560;17.852;2023-07-29T07:53:48;1.38;;;1.27;;
21727;SDS011;11026;50.560;17.852;2023-07-29T07:56:16;2.08;;;1.27;;
21727;SDS011;11026;50.560;17.852;2023-07-29T07:58:43;1.42;;;1.33;;
21727;SDS011;11026;50.560;17.852;2023-07-29T08:01:11;1.40;;;1.23;;
21727;SDS011;11026;50.560;17.852;2023-07-29T08:03:38;1.58;;;1.20;;
21727;SDS011;11026;50.560;17.852;2023-07-29T08:06:08;1.20;;;1.10;;
21727;SDS011;11026;50.560;17.852;2023-07-29T08:08:36;2.03;;;1.20;;
21727;SDS011;11026;50.560;17.852;2023-07-29T08:11:04;1.30;;;1.20;;
21727;SDS011;11026;50.560;17.852;2023-07-29T08:13:32;2.03;;;1.20;;
21727;SDS011;11026;50.560;17.852;2023-07-29T08:16:00;2.35;;;1.50;;
21727;SDS011;11026;50.560;17.852;2023-07-29T08:18:29;1.30;;;1.20;;
21727;SDS011;11026;50.560;17.852;2023-07-29T08:20:58;2.70;;;1.30;;
21727;SDS011;11026;50.560;17.852;2023-07-29T08:23:30;1.45;;;1.35;;
21727;SDS011;11026;50.560;17.852;2023-07-29T08:26:02;2.33;;;1.67;;
21727;SDS011;11026;50.560;17.852;2023-07-29T08:28:35;2.08;;;1.33;;
21727;SDS011;11026;50.560;17.852;2023-07-29T08:31:03;1.88;;;1.10;;
21727;SDS011;11026;50.560;17.852;2023-07-29T08:33:32;2.20;;;1.30;;
21727;SDS011;11026;50.560;17.852;2023-07-29T08:36:01;1.30;;;1.20;;
21727;SDS011;11026;50.560;17.852;2023-07-29T08:38:29;1.50;;;1.40;;
21727;SDS011;11026;50.560;17.852;2023-07-29T08:41:40;1.90;;;1.23;;
21727;SDS011;11026;50.560;17.852;2023-07-29T08:43:59;2.05;;;1.15;;
21727;SDS011;11026;50.560;17.852;2023-07-29T08:46:36;6.57;;;1.20;;
21727;SDS011;11026;50.560;17.852;2023-07-29T08:49:04;3.00;;;1.00;;
21727;SDS011;11026;50.560;17.852;2023-07-29T08:51:38;3.20;;;1.38;;
21727;SDS011;11026;50.560;17.852;2023-07-29T08:54:06;0.98;;;0.98;;
21727;SDS011;11026;50.560;17.852;2023-07-29T08:56:34;2.00;;;1.40;;
21727;SDS011;11026;50.560;17.852;2023-07-29T08:59:03;1.80;;;1.20;;
21727;SDS011;11026;50.560;17.852;2023-07-29T09:01:32;3.05;;;1.38;;
21727;SDS011;11026;50.560;17.852;2023-07-29T09:04:01;1.35;;;1.20;;
21727;SDS011;11026;50.560;17.852;2023-07-29T09:06:30;1.63;;;1.20;;
21727;SDS011;11026;50.560;17.852;2023-07-29T09:09:01;1.33;;;1.15;;
21727;SDS011;11026;50.560;17.852;2023-07-29T09:11:30;1.38;;;1.27;;
21727;SDS011;11026;50.560;17.852;2023-07-29T09:13:58;1.33;;;1.23;;
21727;SDS011;11026;50.560;17.852;2023-07-29T09:16:26;3.50;;;1.52;;
21727;SDS011;11026;50.560;17.852;2023-07-29T09:18:53;2.92;;;1.27;;
21727;SDS011;11026;50.560;17.852;2023-07-29T09:21:25;2.50;;;1.35;;
21727;SDS011;11026;50.560;17.852;2023-07-29T09:23:55;3.00;;;1.50;;
21727;SDS011;11026;50.560;17.852;2023-07-29T09:26:25;2.05;;;1.40;;
21727;SDS011;11026;50.560;17.852;2023-07-29T09:28:54;2.22;;;1.40;;
21727;SDS011;11026;50.560;17.852;2023-07-29T09:31:23;1.65;;;1.52;;
21727;SDS011;11026;50.560;17.852;2023-07-29T09:34:03;2.00;;;1.50;;
21727;SDS011;11026;50.560;17.852;2023-07-29T09:36:31;2.63;;;1.45;;
21727;SDS011;11026;50.560;17.852;2023-07-29T09:39:03;1.50;;;1.35;;
21727;SDS011;11026;50.560;17.852;2023-07-29T09:41:31;1.30;;;1.20;;
21727;SDS011;11026;50.560;17.852;2023-07-29T09:43:59;3.13;;;1.40;;
21727;SDS011;11026;50.560;17.852;2023-07-29T09:46:32;1.73;;;1.23;;
21727;SDS011;11026;50.560;17.852;2023-07-29T09:51:40;1.65;;;1.33;;
21727;SDS011;11026;50.560;17.852;2023-07-29T09:54:08;2.90;;;1.48;;
21727;SDS011;11026;50.560;17.852;2023-07-29T09:56:39;1.50;;;1.40;;
21727;SDS011;11026;50.560;17.852;2023-07-29T09:59:09;1.33;;;1.23;;
21727;SDS011;11026;50.560;17.852;2023-07-29T10:01:40;1.30;;;1.10;;
21727;SDS011;11026;50.560;17.852;2023-07-29T10:04:09;1.80;;;1.48;;
21727;SDS011;11026;50.560;17.852;2023-07-29T10:06:39;1.65;;;1.42;;
21727;SDS011;11026;50.560;17.852;2023-07-29T10:09:08;1.83;;;1.30;;
21727;SDS011;11026;50.560;17.852;2023-07-29T10:11:45;1.38;;;1.20;;
21727;SDS011;11026;50.560;17.852;2023-07-29T10:14:13;1.30;;;1.20;;
21727;SDS011;11026;50.560;17.852;2023-07-29T10:16:41;1.50;;;1.13;;
21727;SDS011;11026;50.560;17.852;2023-07-29T10:19:12;1.30;;;1.20;;
21727;SDS011;11026;50.560;17.852;2023-07-29T10:21:41;2.17;;;1.27;;
21727;SDS011;11026;50.560;17.852;2023-07-29T10:24:18;1.50;;;1.40;;
21727;SDS011;11026;50.560;17.852;2023-07-29T10:26:57;1.30;;;1.20;;
21727;SDS011;11026;50.560;17.852;2023-07-29T10:29:28;2.67;;;1.40;;
21727;SDS011;11026;50.560;17.852;2023-07-29T10:32:03;1.80;;;1.35;;
21727;SDS011;11026;50.560;17.852;2023-07-29T10:34:32;2.50;;;1.25;;
21727;SDS011;11026;50.560;17.852;2023-07-29T10:37:02;1.40;;;1.30;;
21727;SDS011;11026;50.560;17.852;2023-07-29T10:40:13;1.35;;;1.25;;
21727;SDS011;11026;50.560;17.852;2023-07-29T10:44:52;2.25;;;1.40;;
21727;SDS011;11026;50.560;17.852;2023-07-29T10:47:27;1.55;;;1.20;;
21727;SDS011;11026;50.560;17.852;2023-07-29T10:58:22;2.42;;;1.48;;
21727;SDS011;11026;50.560;17.852;2023-07-29T11:00:50;1.63;;;1.50;;
21727;SDS011;11026;50.560;17.852;2023-07-29T11:03:17;2.55;;;1.55;;
21727;SDS011;11026;50.560;17.852;2023-07-29T11:05:51;1.17;;;1.08;;
21727;SDS011;11026;50.560;17.852;2023-07-29T11:08:21;1.70;;;1.60;;
21727;SDS011;11026;50.560;17.852;2023-07-29T11:11:02;1.60;;;1.42;;
21727;SDS011;11026;50.560;17.852;2023-07-29T11:13:33;2.55;;;1.35;;
21727;SDS011;11026;50.560;17.852;2023-07-29T11:16:03;1.50;;;1.40;;
21727;SDS011;11026;50.560;17.852;2023-07-29T11:18:35;1.50;;;1.40;;
21727;SDS011;11026;50.560;17.852;2023-07-29T11:21:04;2.22;;;1.20;;
21727;SDS011;11026;50.560;17.852;2023-07-29T11:23:35;1.73;;;1.40;;
21727;SDS011;11026;50.560;17.852;2023-07-29T11:26:04;1.65;;;1.40;;
21727;SDS011;11026;50.560;17.852;2023-07-29T11:28:37;1.40;;;1.30;;
21727;SDS011;11026;50.560;17.852;2023-07-29T11:31:06;1.60;;;1.30;;
21727;SDS011;11026;50.560;17.852;2023-07-29T11:33:38;2.92;;;1.40;;
21727;SDS011;11026;50.560;17.852;2023-07-29T11:36:16;2.88;;;1.35;;
21727;SDS011;11026;50.560;17.852;2023-07-29T11:38:46;1.60;;;1.50;;
21727;SDS011;11026;50.560;17.852;2023-07-29T11:41:18;1.42;;;1.20;;
21727;SDS011;11026;50.560;17.852;2023-07-29T11:43:47;1.45;;;1.35;;
21727;SDS011;11026;50.560;17.852;2023-07-29T11:46:15;1.77;;;1.63;;
21727;SDS011;11026;50.560;17.852;2023-07-29T11:48:48;1.65;;;1.55;;
21727;SDS011;11026;50.560;17.852;2023-07-29T11:51:15;2.70;;;1.40;;
21727;SDS011;11026;50.560;17.852;2023-07-29T11:53:43;3.05;;;1.60;;
21727;SDS011;11026;50.560;17.852;2023-07-29T11:56:11;2.47;;;1.50;;
21727;SDS011;11026;50.560;17.852;2023-07-29T11:58:40;1.52;;;1.42;;
21727;SDS011;11026;50.560;17.852;2023-07-29T12:01:09;1.50;;;1.40;;
21727;SDS011;11026;50.560;17.852;2023-07-29T12:03:37;2.35;;;1.60;;
21727;SDS011;11026;50.560;17.852;2023-07-29T12:06:04;3.25;;;1.50;;
21727;SDS011;11026;50.560;17.852;2023-07-29T12:08:33;2.65;;;1.40;;
21727;SDS011;11026;50.560;17.852;2023-07-29T12:11:00;2.08;;;1.40;;
21727;SDS011;11026;50.560;17.852;2023-07-29T12:13:28;2.30;;;1.70;;
21727;SDS011;11026;50.560;17.852;2023-07-29T12:16:03;2.00;;;1.70;;
21727;SDS011;11026;50.560;17.852;2023-07-29T12:18:34;1.63;;;1.52;;
21727;SDS011;11026;50.560;17.852;2023-07-29T12:21:02;2.85;;;1.52;;
21727;SDS011;11026;50.560;17.852;2023-07-29T12:23:30;2.03;;;1.70;;
21727;SDS011;11026;50.560;17.852;2023-07-29T12:25:58;1.73;;;1.60;;
21727;SDS011;11026;50.560;17.852;2023-07-29T12:28:26;2.42;;;1.70;;
21727;SDS011;11026;50.560;17.852;2023-07-29T12:30:55;1.92;;;1.80;;
21727;SDS011;11026;50.560;17.852;2023-07-29T12:33:33;1.98;;;1.88;;
21727;SDS011;11026;50.560;17.852;2023-07-29T12:36:02;2.00;;;1.90;;
21727;SDS011;11026;50.560;17.852;2023-07-29T12:38:30;2.15;;;1.90;;
21727;SDS011;11026;50.560;17.852;2023-07-29T12:40:57;2.72;;;2.15;;
21727;SDS011;11026;50.560;17.852;2023-07-29T12:43:25;2.00;;;1.90;;
21727;SDS011;11026;50.560;17.852;2023-07-29T12:45:53;2.40;;;2.20;;
21727;SDS011;11026;50.560;17.852;2023-07-29T12:48:22;2.38;;;2.17;;
21727;SDS011;11026;50.560;17.852;2023-07-29T12:50:50;2.78;;;2.30;;
21727;SDS011;11026;50.560;17.852;2023-07-29T12:53:19;3.75;;;2.42;;
21727;SDS011;11026;50.560;17.852;2023-07-29T12:55:47;2.65;;;2.45;;
21727;SDS011;11026;50.560;17.852;2023-07-29T12:58:14;2.60;;;2.40;;
21727;SDS011;11026;50.560;17.852;2023-07-29T13:00:42;2.45;;;2.28;;
21727;SDS011;11026;50.560;17.852;2023-07-29T13:03:09;2.30;;;2.20;;
21727;SDS011;11026;50.560;17.852;2023-07-29T13:05:37;2.38;;;2.28;;
21727;SDS011;11026;50.560;17.852;2023-07-29T13:08:04;2.33;;;2.13;;
21727;SDS011;11026;50.560;17.852;2023-07-29T13:10:32;2.25;;;2.10;;
21727;SDS011;11026;50.560;17.852;2023-07-29T13:12:59;2.60;;;2.40;;
21727;SDS011;11026;50.560;17.852;2023-07-29T13:15:33;3.58;;;2.17;;
21727;SDS011;11026;50.560;17.852;2023-07-29T13:20:31;2.97;;;2.53;;
21727;SDS011;11026;50.560;17.852;2023-07-29T13:23:00;2.72;;;2.53;;
21727;SDS011;11026;50.560;17.852;2023-07-29T13:25:28;2.60;;;2.40;;
21727;SDS011;11026;50.560;17.852;2023-07-29T13:27:55;3.20;;;2.90;;
21727;SDS011;11026;50.560;17.852;2023-07-29T13:30:22;2.72;;;2.53;;
21727;SDS011;11026;50.560;17.852;2023-07-29T13:32:51;4.18;;;2.60;;
21727;SDS011;11026;50.560;17.852;2023-07-29T13:35:18;3.42;;;3.13;;
21727;SDS011;11026;50.560;17.852;2023-07-29T13:37:46;3.90;;;3.55;;
21727;SDS011;11026;50.560;17.852;2023-07-29T13:40:13;4.40;;;4.00;;
21727;SDS011;11026;50.560;17.852;2023-07-29T13:42:41;2.83;;;2.63;;
21727;SDS011;11026;50.560;17.852;2023-07-29T13:45:10;3.20;;;2.90;;
21727;SDS011;11026;50.560;17.852;2023-07-29T13:47:38;2.60;;;2.40;;
21727;SDS011;11026;50.560;17.852;2023-07-29T13:50:08;2.85;;;2.65;;
21727;SDS011;11026;50.560;17.852;2023-07-29T13:52:36;6.93;;;2.50;;
21727;SDS011;11026;50.560;17.852;2023-07-29T13:55:05;2.83;;;1.90;;
21727;SDS011;11026;50.560;17.852;2023-07-29T13:57:33;1.63;;;1.52;;
21727;SDS011;11026;50.560;17.852;2023-07-29T14:00:01;1.63;;;1.52;;
21727;SDS011;11026;50.560;17.852;2023-07-29T14:02:31;2.38;;;1.63;;
21727;SDS011;11026;50.560;17.852;2023-07-29T14:05:02;3.30;;;1.60;;
21727;SDS011;11026;50.560;17.852;2023-07-29T14:07:31;1.70;;;1.38;;
21727;SDS011;11026;50.560;17.852;2023-07-29T14:09:59;2.42;;;2.03;;
21727;SDS011;11026;50.560;17.852;2023-07-29T14:12:28;1.63;;;1.40;;
21727;SDS011;11026;50.560;17.852;2023-07-29T14:14:55;1.83;;;1.40;;
21727;SDS011;11026;50.560;17.852;2023-07-29T14:17:23;1.63;;;1.50;;
21727;SDS011;11026;50.560;17.852;2023-07-29T14:19:50;1.60;;;1.50;;
21727;SDS011;11026;50.560;17.852;2023-07-29T14:22:18;2.42;;;1.50;;
21727;SDS011;11026;50.560;17.852;2023-07-29T14:24:45;3.65;;;1.30;;
21727;SDS011;11026;50.560;17.852;2023-07-29T14:27:12;1.13;;;1.02;;
21727;SDS011;11026;50.560;17.852;2023-07-29T14:29:40;2.38;;;1.25;;
21727;SDS011;11026;50.560;17.852;2023-07-29T14:32:09;1.00;;;1.00;;
21727;SDS011;11026;50.560;17.852;2023-07-29T14:34:36;2.35;;;1.17;;
21727;SDS011;11026;50.560;17.852;2023-07-29T14:37:05;1.25;;;1.15;;
21727;SDS011;11026;50.560;17.852;2023-07-29T14:39:32;2.22;;;1.27;;
21727;SDS011;11026;50.560;17.852;2023-07-29T14:42:00;2.30;;;1.10;;
21727;SDS011;11026;50.560;17.852;2023-07-29T14:44:27;3.72;;;1.10;;
21727;SDS011;11026;50.560;17.852;2023-07-29T14:46:55;1.42;;;1.15;;
21727;SDS011;11026;50.560;17.852;2023-07-29T14:49:22;1.35;;;1.25;;
21727;SDS011;11026;50.560;17.852;2023-07-29T14:51:50;1.45;;;1.35;;
21727;SDS011;11026;50.560;17.852;2023-07-29T14:54:17;2.05;;;1.42;;
21727;SDS011;11026;50.560;17.852;2023-07-29T14:56:44;1.35;;;1.25;;
21727;SDS011;11026;50.560;17.852;2023-07-29T14:59:12;1.85;;;1.20;;
21727;SDS011;11026;50.560;17.852;2023-07-29T15:01:40;1.40;;;1.30;;
21727;SDS011;11026;50.560;17.852;2023-07-29T15:04:14;3.55;;;1.20;;
21727;SDS011;11026;50.560;17.852;2023-07-29T15:06:41;1.55;;;1.20;;
21727;SDS011;11026;50.560;17.852;2023-07-29T15:09:09;1.10;;;1.00;;
21727;SDS011;11026;50.560;17.852;2023-07-29T15:14:10;1.40;;;1.20;;